Time;durP1;ratioP1;P1;durP2;ratioP2;P2;SDS_P1;SDS_P2;PMS_P1;PMS_P2;Temp;Humidity;BMP_temperature;BMP_pressure;BME280_temperature;BME280_humidity;BME280_pressure;Samples;Min_cycle;Max_cycle;Signal;HPM_P1;HPM_P2
2023/08/22 00:01:56;;;;;;;17.40;8.05;;;23.90;99.90;;;;;;5016797;28;20377;-49
2023/08/22 00:04:22;;;;;;;15.95;7.35;;;23.90;99.90;;;;;;5033308;28;20462;-49
2023/08/22 00:06:47;;;;;;;8.32;7.53;;;23.80;99.90;;;;;;5033370;28;20044;-49
2023/08/22 00:09:13;;;;;;;9.65;7.30;;;23.70;99.90;;;;;;5033443;28;20021;-48
2023/08/22 00:11:39;;;;;;;14.85;8.57;;;23.80;99.90;;;;;;5037153;28;20025;-48
2023/08/22 00:14:04;;;;;;;9.85;8.18;;;23.80;99.90;;;;;;5037318;28;20025;-48
2023/08/22 00:16:30;;;;;;;8.10;7.32;;;23.80;99.90;;;;;;5055226;28;20025;-53
2023/08/22 00:18:55;;;;;;;9.10;7.30;;;23.80;99.90;;;;;;5037322;28;20029;-47
2023/08/22 00:21:22;;;;;;;10.90;7.80;;;23.80;99.90;;;;;;5037005;28;20074;-49
2023/08/22 00:23:48;;;;;;;9.90;7.78;;;23.80;99.90;;;;;;5037329;28;20496;-48
2023/08/22 00:26:14;;;;;;;11.73;8.52;;;23.90;99.90;;;;;;5037152;28;20044;-49
2023/08/22 00:28:39;;;;;;;8.52;7.68;;;23.80;99.90;;;;;;5037066;28;20013;-48
2023/08/22 00:31:05;;;;;;;10.38;7.57;;;23.90;99.90;;;;;;5036845;28;20167;-48
2023/08/22 00:33:30;;;;;;;12.07;7.25;;;23.80;99.90;;;;;;5037007;28;20025;-50
2023/08/22 00:35:56;;;;;;;12.45;7.45;;;23.80;99.90;;;;;;5054909;28;20025;-52
2023/08/22 00:38:22;;;;;;;10.15;8.38;;;23.90;99.90;;;;;;5036709;28;20029;-48
2023/08/22 00:40:48;;;;;;;8.80;7.95;;;23.70;99.90;;;;;;5036622;28;20044;-48
2023/08/22 00:43:13;;;;;;;12.77;7.68;;;23.70;99.90;;;;;;5036741;28;20033;-48
2023/08/22 00:45:40;;;;;;;16.77;7.97;;;23.70;99.90;;;;;;5036773;28;20446;-49
2023/08/22 00:48:07;;;;;;;11.70;7.85;;;23.60;99.90;;;;;;5036709;28;20021;-49
2023/08/22 00:50:33;;;;;;;12.95;7.95;;;23.60;99.90;;;;;;5036301;28;20032;-49
2023/08/22 00:53:00;;;;;;;8.38;6.95;;;23.60;99.90;;;;;;5054047;28;20025;-50
2023/08/22 00:55:26;;;;;;;12.18;7.57;;;23.50;99.90;;;;;;5036402;28;20120;-48
2023/08/22 00:57:52;;;;;;;15.73;7.38;;;23.50;99.90;;;;;;5036482;28;20064;-48
2023/08/22 01:00:18;;;;;;;12.27;7.32;;;23.50;99.90;;;;;;5036152;28;20086;-47
2023/08/22 01:02:44;;;;;;;18.98;8.38;;;23.50;99.90;;;;;;5036220;28;20037;-49
2023/08/22 01:05:10;;;;;;;11.52;8.25;;;23.40;99.90;;;;;;5036321;28;20136;-47
2023/08/22 01:07:45;;;;;;;10.90;8.23;;;23.40;99.90;;;;;;5036361;28;20552;-48
2023/08/22 01:10:19;;;;;;;14.07;7.18;;;23.40;99.90;;;;;;5036381;28;20029;-47
2023/08/22 01:13:07;;;;;;;17.33;8.20;;;23.30;99.90;;;;;;5036348;28;20396;-53
2023/08/22 01:15:35;;;;;;;10.95;8.15;;;23.20;99.90;;;;;;5036274;28;20059;-50
2023/08/22 01:18:04;;;;;;;12.13;7.53;;;23.10;99.90;;;;;;5036149;28;20484;-49
2023/08/22 01:20:30;;;;;;;10.73;7.65;;;23.10;99.90;;;;;;5035468;28;20060;-48
2023/08/22 01:22:56;;;;;;;13.73;7.75;;;23.10;99.90;;;;;;5035263;28;20025;-48
2023/08/22 01:25:23;;;;;;;9.75;7.53;;;23.10;99.90;;;;;;5036259;28;20456;-51
2023/08/22 01:28:08;;;;;;;12.30;8.15;;;23.10;99.90;;;;;;5036077;28;20025;-51
2023/08/22 01:30:43;;;;;;;13.68;7.90;;;23.10;99.90;;;;;;5035754;28;20029;-49
2023/08/22 01:33:27;;;;;;;;;;;23.00;99.90;;;;;;5054387;28;20121;-50
2023/08/22 01:35:55;;;;;;;11.65;7.65;;;23.00;99.90;;;;;;5035870;28;20417;-52
2023/08/22 01:38:23;;;;;;;11.02;8.43;;;22.90;99.90;;;;;;5035701;28;20045;-48
2023/08/22 01:40:50;;;;;;;14.95;9.50;;;22.90;99.90;;;;;;5035402;28;20031;-50
2023/08/22 01:43:16;;;;;;;13.32;10.45;;;22.90;99.90;;;;;;5035676;28;20419;-49
2023/08/22 01:45:41;;;;;;;12.90;9.75;;;22.90;99.90;;;;;;5035741;28;20048;-49
2023/08/22 01:48:07;;;;;;;18.05;11.30;;;22.80;99.90;;;;;;5035695;28;20064;-49
2023/08/22 01:50:32;;;;;;;16.20;11.40;;;22.80;99.90;;;;;;5035409;28;20017;-47
2023/08/22 01:52:58;;;;;;;11.60;10.40;;;22.70;99.90;;;;;;5035160;28;20435;-48
2023/08/22 01:55:24;;;;;;;12.18;9.48;;;22.80;99.90;;;;;;5035444;28;20500;-50
2023/08/22 01:57:49;;;;;;;16.90;9.05;;;22.70;99.90;;;;;;5035519;28;20052;-48
2023/08/22 02:00:15;;;;;;;8.90;8.05;;;22.70;99.90;;;;;;5035169;28;20065;-50
2023/08/22 02:02:41;;;;;;;9.68;8.73;;;22.60;99.90;;;;;;5035013;28;20032;-48
2023/08/22 02:05:07;;;;;;;13.70;9.98;;;22.60;99.90;;;;;;5035143;28;20509;-52
2023/08/22 02:07:34;;;;;;;11.68;9.70;;;22.50;99.90;;;;;;5035344;28;20108;-52
2023/08/22 02:09:59;;;;;;;17.40;9.60;;;22.50;99.90;;;;;;5035148;28;20021;-47
2023/08/22 02:12:26;;;;;;;11.43;10.43;;;22.40;99.90;;;;;;5035042;28;20618;-50
2023/08/22 02:14:53;;;;;;;12.30;9.43;;;22.40;99.90;;;;;;5035000;28;20024;-51
2023/08/22 02:17:19;;;;;;;12.70;10.45;;;22.40;99.90;;;;;;5035016;28;20502;-47
2023/08/22 02:19:45;;;;;;;17.85;10.63;;;22.40;99.90;;;;;;5034662;28;20033;-48
2023/08/22 02:22:10;;;;;;;12.57;9.82;;;22.40;99.90;;;;;;5034813;28;20074;-49
2023/08/22 02:24:36;;;;;;;10.73;9.68;;;22.30;99.90;;;;;;5034933;28;20017;-48
2023/08/22 02:27:03;;;;;;;14.75;10.13;;;22.30;99.90;;;;;;5052771;28;20028;-51
2023/08/22 02:29:29;;;;;;;18.05;10.98;;;22.30;99.90;;;;;;5034629;28;20021;-50
2023/08/22 02:31:55;;;;;;;12.95;10.02;;;22.30;99.90;;;;;;5018012;28;20032;-50
2023/08/22 02:34:21;;;;;;;12.63;8.55;;;22.30;99.90;;;;;;5034483;28;20480;-48
2023/08/22 02:36:47;;;;;;;12.18;8.90;;;22.30;99.90;;;;;;5034547;28;20055;-49
2023/08/22 02:39:13;;;;;;;16.13;9.88;;;22.30;99.90;;;;;;5034455;28;20087;-49
2023/08/22 02:41:39;;;;;;;9.52;8.57;;;22.30;99.90;;;;;;5034366;28;20024;-48
2023/08/22 02:44:05;;;;;;;12.25;10.70;;;22.30;99.90;;;;;;5034457;28;20097;-49
2023/08/22 02:46:31;;;;;;;12.27;9.73;;;22.30;99.90;;;;;;5052358;28;20025;-47
2023/08/22 02:48:56;;;;;;;14.48;10.27;;;22.20;99.90;;;;;;5034142;28;20074;-47
2023/08/22 02:51:22;;;;;;;11.18;10.13;;;22.20;99.90;;;;;;5034206;28;20028;-52
2023/08/22 02:53:47;;;;;;;12.32;10.55;;;22.20;99.90;;;;;;5034347;28;20377;-49
2023/08/22 02:56:14;;;;;;;13.43;10.38;;;22.20;99.90;;;;;;5052201;28;20037;-48
2023/08/22 02:58:40;;;;;;;11.10;8.95;;;22.20;99.90;;;;;;5034231;28;20025;-49
2023/08/22 03:01:07;;;;;;;16.45;10.27;;;22.20;99.90;;;;;;5033778;28;20029;-51
2023/08/22 03:03:33;;;;;;;9.52;8.52;;;22.10;99.90;;;;;;5034022;28;20035;-52
2023/08/22 03:05:59;;;;;;;10.10;9.10;;;22.00;99.90;;;;;;5034114;28;20017;-53
2023/08/22 03:08:25;;;;;;;11.38;9.25;;;22.00;99.90;;;;;;5034179;28;20025;-51
2023/08/22 03:10:51;;;;;;;10.85;9.82;;;22.00;99.90;;;;;;5017528;28;20036;-50
2023/08/22 03:13:16;;;;;;;12.95;10.07;;;22.00;99.90;;;;;;5034294;28;20546;-47
2023/08/22 03:15:42;;;;;;;20.42;10.75;;;22.00;99.90;;;;;;5033983;28;20029;-47
2023/08/22 03:18:08;;;;;;;14.95;10.15;;;22.00;99.90;;;;;;5051947;28;20036;-44
2023/08/22 03:20:33;;;;;;;17.92;10.05;;;22.00;99.90;;;;;;5017420;28;20408;-50
2023/08/22 03:23:00;;;;;;;10.35;9.35;;;22.00;99.90;;;;;;5033946;28;20040;-50
2023/08/22 03:25:26;;;;;;;12.65;10.57;;;22.00;99.90;;;;;;5033905;28;20116;-49
2023/08/22 03:27:51;;;;;;;15.82;11.68;;;21.90;99.90;;;;;;5051870;28;20060;-51
2023/08/22 03:30:17;;;;;;;16.13;10.55;;;22.00;99.90;;;;;;5033489;28;20082;-48
2023/08/22 03:32:43;;;;;;;14.00;10.40;;;22.00;99.90;;;;;;5033655;28;20515;-48
2023/08/22 03:35:09;;;;;;;16.35;10.93;;;22.00;99.90;;;;;;5033800;28;20116;-50
2023/08/22 03:37:34;;;;;;;19.77;11.98;;;21.90;99.90;;;;;;5033772;28;20025;-53
2023/08/22 03:40:01;;;;;;;12.88;10.40;;;21.90;99.90;;;;;;5033381;28;20029;-50
2023/08/22 03:42:26;;;;;;;10.80;9.68;;;21.90;99.90;;;;;;5033510;28;20035;-47
2023/08/22 03:44:52;;;;;;;13.05;11.60;;;21.90;99.90;;;;;;5032975;28;20021;-48
2023/08/22 03:47:18;;;;;;;13.23;9.65;;;21.90;99.90;;;;;;5033519;28;20056;-48
2023/08/22 03:49:43;;;;;;;12.15;10.23;;;21.80;99.90;;;;;;5033410;28;20037;-50
2023/08/22 03:52:09;;;;;;;13.25;11.38;;;21.80;99.90;;;;;;5033506;28;20017;-48
2023/08/22 03:54:34;;;;;;;13.48;11.52;;;21.80;99.90;;;;;;5033176;28;20511;-51
2023/08/22 03:57:00;;;;;;;15.40;10.48;;;21.80;99.90;;;;;;5033828;28;20033;-50
2023/08/22 03:59:25;;;;;;;16.30;12.05;;;21.70;99.90;;;;;;5033336;28;20037;-49
2023/08/22 04:01:51;;;;;;;12.00;10.80;;;21.70;99.90;;;;;;5033636;28;20089;-50
2023/08/22 04:04:17;;;;;;;13.00;11.48;;;21.60;99.90;;;;;;5033246;28;20029;-51
2023/08/22 04:06:42;;;;;;;13.65;11.55;;;21.60;99.90;;;;;;5033356;28;20021;-52
2023/08/22 04:09:09;;;;;;;17.52;12.45;;;21.60;99.90;;;;;;5051127;28;20036;-48
2023/08/22 04:11:34;;;;;;;12.85;11.55;;;21.40;99.90;;;;;;5033157;28;20021;-51
2023/08/22 04:14:00;;;;;;;13.10;11.80;;;21.60;99.90;;;;;;5033251;28;20036;-48
2023/08/22 04:16:25;;;;;;;12.20;10.85;;;21.60;99.90;;;;;;5033309;28;20029;-48
2023/08/22 04:18:51;;;;;;;12.77;11.48;;;21.60;99.90;;;;;;5051256;28;20036;-51
2023/08/22 04:21:17;;;;;;;13.55;12.18;;;21.60;99.90;;;;;;5033067;28;20025;-53
2023/08/22 04:23:42;;;;;;;13.13;11.82;;;21.60;99.90;;;;;;5033201;28;20031;-51
2023/08/22 04:26:08;;;;;;;13.48;12.15;;;21.60;99.90;;;;;;5033190;28;20021;-50
2023/08/22 04:28:34;;;;;;;13.40;12.00;;;21.60;99.90;;;;;;5033214;28;20021;-52
2023/08/22 04:31:00;;;;;;;13.13;11.90;;;21.60;99.90;;;;;;5032839;28;20025;-54
2023/08/22 04:33:26;;;;;;;15.20;11.73;;;21.60;99.90;;;;;;5051141;28;20109;-50
2023/08/22 04:35:51;;;;;;;15.25;12.85;;;21.60;99.90;;;;;;5051005;28;20040;-49
2023/08/22 04:38:17;;;;;;;12.75;11.32;;;21.60;99.90;;;;;;5016980;28;20036;-48
2023/08/22 04:40:43;;;;;;;22.65;13.18;;;21.50;99.90;;;;;;5033384;28;20496;-51
2023/08/22 04:43:08;;;;;;;16.05;12.05;;;21.50;99.90;;;;;;5033771;28;20489;-50
2023/08/22 04:45:35;;;;;;;15.60;12.07;;;21.50;99.90;;;;;;5033627;28;20059;-56
2023/08/22 04:48:00;;;;;;;15.50;11.85;;;21.50;99.90;;;;;;5033091;28;20062;-50
2023/08/22 04:50:26;;;;;;;12.23;10.88;;;21.50;99.90;;;;;;5032784;28;20051;-50
2023/08/22 04:52:51;;;;;;;22.00;12.65;;;21.50;99.90;;;;;;5032703;28;20029;-48
2023/08/22 04:55:17;;;;;;;18.27;13.93;;;21.50;99.90;;;;;;5033289;28;20036;-50
2023/08/22 04:57:42;;;;;;;16.42;13.25;;;21.50;99.90;;;;;;5036582;28;20031;-53
2023/08/22 05:00:09;;;;;;;29.92;14.40;;;21.50;99.90;;;;;;5036159;28;20075;-50
2023/08/22 05:02:35;;;;;;;14.75;13.27;;;21.50;99.90;;;;;;5036248;28;20029;-49
2023/08/22 05:05:01;;;;;;;19.90;15.20;;;21.50;99.90;;;;;;5036384;28;20125;-48
2023/08/22 05:07:27;;;;;;;16.70;14.63;;;21.60;99.90;;;;;;5036584;28;20069;-51
2023/08/22 05:09:52;;;;;;;16.35;12.32;;;21.60;99.90;;;;;;5036062;28;20029;-48
2023/08/22 05:12:18;;;;;;;13.52;12.18;;;21.70;99.90;;;;;;5036110;28;20024;-48
2023/08/22 05:14:43;;;;;;;14.35;12.00;;;21.80;99.90;;;;;;5036075;28;20032;-49
2023/08/22 05:17:09;;;;;;;12.60;11.35;;;21.80;99.90;;;;;;5036156;28;20031;-53
2023/08/22 05:19:34;;;;;;;13.15;10.77;;;22.00;99.90;;;;;;5053782;28;20025;-52
2023/08/22 05:22:00;;;;;;;11.52;10.13;;;22.20;99.90;;;;;;5036100;28;20332;-48
2023/08/22 05:24:26;;;;;;;13.90;11.00;;;22.40;99.90;;;;;;5036133;28;20045;-51
2023/08/22 05:26:51;;;;;;;10.23;9.00;;;22.60;99.90;;;;;;5035971;28;20380;-49
2023/08/22 05:29:20;;;;;;;10.50;9.40;;;22.70;99.90;;;;;;5035790;28;20031;-48
2023/08/22 05:31:46;;;;;;;10.63;9.63;;;22.80;99.90;;;;;;5019335;28;20488;-51
2023/08/22 05:34:11;;;;;;;12.65;9.60;;;22.90;99.90;;;;;;5035683;28;20033;-52
2023/08/22 05:36:37;;;;;;;16.20;9.82;;;22.90;99.90;;;;;;5035913;28;20036;-50
2023/08/22 05:39:03;;;;;;;12.07;9.68;;;22.90;99.90;;;;;;5035780;28;20029;-52
2023/08/22 05:41:29;;;;;;;20.38;10.68;;;22.90;99.90;;;;;;5035548;28;20044;-49
2023/08/22 05:43:54;;;;;;;14.90;10.65;;;22.90;99.90;;;;;;5018979;28;20025;-50
2023/08/22 05:46:20;;;;;;;11.73;10.50;;;22.90;99.90;;;;;;5035489;28;20028;-51
2023/08/22 05:48:46;;;;;;;10.10;9.18;;;22.90;99.90;;;;;;5035367;28;20525;-48
2023/08/22 05:51:11;;;;;;;14.07;9.27;;;23.00;99.90;;;;;;5035201;28;20515;-52
2023/08/22 05:53:37;;;;;;;14.45;10.23;;;23.10;99.90;;;;;;5035071;28;20032;-51
2023/08/22 05:56:02;;;;;;;16.23;9.73;;;23.10;99.90;;;;;;5035172;28;20108;-54
2023/08/22 05:58:28;;;;;;;8.30;7.50;;;23.20;99.90;;;;;;5035197;28;20615;-50
2023/08/22 06:00:54;;;;;;;19.83;9.00;;;23.30;99.90;;;;;;5035412;28;20377;-55
2023/08/22 06:03:20;;;;;;;15.20;9.25;;;23.30;99.90;;;;;;5035389;28;20079;-53
2023/08/22 06:05:46;;;;;;;8.95;7.93;;;23.40;99.90;;;;;;5035176;28;20031;-51
2023/08/22 06:08:12;;;;;;;7.97;7.20;;;23.50;99.90;;;;;;5052562;28;20025;-51
2023/08/22 06:10:37;;;;;;;13.68;8.98;;;23.60;99.90;;;;;;5034903;28;20017;-51
2023/08/22 06:13:03;;;;;;;15.13;8.95;;;23.70;99.90;;;;;;5033512;28;20025;-49
2023/08/22 06:15:29;;;;;;;16.30;8.77;;;23.80;99.90;;;;;;5043849;28;20374;-50
2023/08/22 06:17:54;;;;;;;10.07;7.95;;;24.00;99.90;;;;;;5015157;28;20397;-49
2023/08/22 06:20:20;;;;;;;10.65;7.60;;;24.10;99.90;;;;;;5047011;28;20033;-54
2023/08/22 06:22:45;;;;;;;10.10;7.10;;;24.20;99.90;;;;;;5034623;28;20036;-52
2023/08/22 06:25:11;;;;;;;6.78;6.07;;;24.40;99.90;;;;;;5034844;28;20048;-52
2023/08/22 06:27:36;;;;;;;7.05;6.38;;;24.60;99.90;;;;;;5016226;28;20063;-50
2023/08/22 06:30:02;;;;;;;8.80;6.20;;;24.70;99.90;;;;;;5051894;28;20015;-54
2023/08/22 06:32:28;;;;;;;11.70;6.68;;;24.70;99.90;;;;;;5052417;28;20013;-51
2023/08/22 06:34:59;;;;;;;10.50;7.20;;;24.80;99.90;;;;;;5038440;28;20033;-55
2023/08/22 06:37:24;;;;;;;12.20;8.50;;;24.90;99.90;;;;;;5032641;28;20017;-56
2023/08/22 06:39:50;;;;;;;8.50;7.10;;;25.10;99.90;;;;;;5032319;28;20017;-55
2023/08/22 06:42:15;;;;;;;9.30;6.95;;;25.30;99.90;;;;;;5032335;28;20064;-51
2023/08/22 06:44:40;;;;;;;9.95;6.85;;;25.60;99.90;;;;;;5015070;28;20022;-54
2023/08/22 06:47:06;;;;;;;10.43;7.00;;;25.90;99.90;;;;;;5046701;28;20104;-51
2023/08/22 06:49:32;;;;;;;6.80;5.47;;;26.30;99.90;;;;;;5052037;28;20020;-50
2023/08/22 06:51:57;;;;;;;6.22;5.22;;;26.80;99.90;;;;;;5052050;28;20032;-49
2023/08/22 06:54:23;;;;;;;7.78;5.25;;;27.40;99.90;;;;;;5052334;28;20025;-50
2023/08/22 06:56:49;;;;;;;9.45;4.72;;;28.20;99.90;;;;;;5052250;28;20519;-52
2023/08/22 06:59:16;;;;;;;8.25;4.00;;;28.80;99.90;;;;;;5051308;28;20040;-54
2023/08/22 07:01:41;;;;;;;9.07;5.20;;;29.50;99.90;;;;;;5050755;28;20095;-49
2023/08/22 07:04:07;;;;;;;9.00;4.57;;;30.30;99.90;;;;;;5033550;28;20025;-54
2023/08/22 07:06:32;;;;;;;8.68;5.25;;;30.70;99.90;;;;;;5034057;28;20128;-52
2023/08/22 07:08:58;;;;;;;4.07;3.78;;;31.40;99.90;;;;;;5033970;28;20116;-50
2023/08/22 07:11:23;;;;;;;6.00;4.20;;;32.00;99.90;;;;;;5033095;28;20063;-54
2023/08/22 07:13:50;;;;;;;13.32;5.35;;;32.50;99.00;;;;;;5033886;28;20123;-51
2023/08/22 07:16:16;;;;;;;7.68;3.78;;;33.00;98.40;;;;;;5033714;28;20029;-53
2023/08/22 07:18:42;;;;;;;7.13;3.40;;;33.40;97.80;;;;;;5032910;28;20095;-50
2023/08/22 07:21:07;;;;;;;7.00;3.67;;;33.80;96.30;;;;;;5053292;28;20033;-51
2023/08/22 07:23:33;;;;;;;5.68;3.10;;;34.20;95.80;;;;;;5033860;28;20029;-52
2023/08/22 07:25:59;;;;;;;3.88;3.55;;;34.60;95.10;;;;;;5034044;28;20033;-51
2023/08/22 07:28:24;;;;;;;7.50;3.88;;;35.10;94.10;;;;;;5033679;28;20396;-52
2023/08/22 07:30:50;;;;;;;6.22;3.92;;;35.50;93.60;;;;;;5033468;28;20028;-52
2023/08/22 07:33:16;;;;;;;8.57;4.20;;;35.60;92.90;;;;;;5033931;28;20021;-54
2023/08/22 07:35:43;;;;;;;4.78;3.33;;;35.60;93.10;;;;;;5051819;28;20016;-51
2023/08/22 07:38:09;;;;;;;5.60;3.35;;;35.50;92.80;;;;;;5034116;28;20079;-50
2023/08/22 07:40:40;;;;;;;7.32;3.55;;;35.50;92.80;;;;;;5034840;28;20099;-52
2023/08/22 07:43:05;;;;;;;5.97;3.30;;;35.80;92.70;;;;;;5034323;28;20082;-51
2023/08/22 07:45:31;;;;;;;7.50;3.42;;;36.30;91.80;;;;;;5033428;28;20026;-54
2023/08/22 07:47:57;;;;;;;4.75;3.05;;;35.70;91.80;;;;;;5033496;28;20079;-52
2023/08/22 07:50:22;;;;;;;7.05;3.58;;;35.80;92.10;;;;;;5016730;28;20053;-51
2023/08/22 07:52:48;;;;;;;5.70;3.10;;;36.40;91.30;;;;;;5033214;28;20044;-54
2023/08/22 07:55:14;;;;;;;4.10;2.83;;;36.70;90.70;;;;;;5032951;28;20441;-53
2023/08/22 07:57:39;;;;;;;6.80;2.75;;;36.80;90.60;;;;;;5032476;28;20036;-56
2023/08/22 08:00:11;;;;;;;11.10;3.63;;;37.00;90.30;;;;;;5016504;28;20385;-55
2023/08/22 08:02:40;;;;;;;7.13;2.92;;;36.90;90.30;;;;;;5033003;28;20123;-49
2023/08/22 08:05:06;;;;;;;8.05;3.22;;;37.40;90.50;;;;;;5049960;28;20045;-51
2023/08/22 08:07:32;;;;;;;3.83;3.00;;;37.80;88.00;;;;;;5033290;28;20435;-48
2023/08/22 08:09:58;;;;;;;4.70;3.47;;;37.70;87.50;;;;;;5033178;28;20056;-50
2023/08/22 08:12:24;;;;;;;6.35;3.70;;;37.60;87.20;;;;;;5033542;28;20029;-53
2023/08/22 08:14:49;;;;;;;6.57;3.30;;;37.50;87.90;;;;;;5033287;28;20067;-51
2023/08/22 08:17:18;;;;;;;6.90;3.45;;;37.60;87.70;;;;;;5032646;28;20028;-54
2023/08/22 08:19:44;;;;;;;5.85;3.00;;;37.80;87.30;;;;;;5032134;28;20087;-50
2023/08/22 08:22:11;;;;;;;6.05;3.33;;;38.20;86.60;;;;;;5032983;28;20523;-54
2023/08/22 08:24:37;;;;;;;5.45;3.33;;;38.20;84.40;;;;;;5032171;28;20029;-54
2023/08/22 08:27:03;;;;;;;5.28;3.75;;;38.10;84.80;;;;;;5022085;28;20025;-52
2023/08/22 08:29:29;;;;;;;5.47;2.60;;;38.30;84.30;;;;;;5032414;28;20036;-55
2023/08/22 08:31:56;;;;;;;7.28;3.03;;;38.00;85.00;;;;;;5035589;28;20066;-54
2023/08/22 08:34:22;;;;;;;3.55;2.60;;;38.40;84.10;;;;;;5036701;28;20025;-51
2023/08/22 08:36:49;;;;;;;6.60;3.33;;;38.70;84.00;;;;;;5036333;28;20163;-56
2023/08/22 08:39:15;;;;;;;4.85;2.45;;;39.20;82.70;;;;;;5036650;28;20622;-55
2023/08/22 08:41:53;;;;;;;9.30;3.00;;;39.00;81.50;;;;;;5035670;28;20116;-50
2023/08/22 08:44:20;;;;;;;9.07;3.17;;;38.80;82.10;;;;;;5036322;28;20031;-55
2023/08/22 08:46:46;;;;;;;4.38;2.80;;;38.70;80.40;;;;;;5036099;28;20120;-48
2023/08/22 08:49:14;;;;;;;8.30;3.13;;;38.50;81.60;;;;;;5036358;28;20021;-54
2023/08/22 08:51:41;;;;;;;10.48;3.47;;;38.50;81.90;;;;;;5020057;28;20098;-53
2023/08/22 08:54:07;;;;;;;6.90;2.85;;;38.40;82.40;;;;;;5053944;28;20028;-52
2023/08/22 08:56:33;;;;;;;5.60;2.90;;;38.40;82.70;;;;;;5036744;28;20047;-52
2023/08/22 08:58:58;;;;;;;4.90;2.63;;;38.20;83.10;;;;;;5036437;28;20488;-53
2023/08/22 09:01:26;;;;;;;8.52;3.50;;;38.00;83.50;;;;;;5035976;28;20047;-51
2023/08/22 09:03:51;;;;;;;3.58;2.67;;;38.10;83.30;;;;;;5036324;28;20104;-52
2023/08/22 09:06:20;;;;;;;7.95;3.83;;;37.80;83.80;;;;;;5036220;28;20511;-49
2023/08/22 09:09:07;;;;;;;5.38;3.15;;;37.00;84.90;;;;;;5054056;28;20029;-52
2023/08/22 09:11:33;;;;;;;6.35;4.03;;;36.10;86.30;;;;;;5035907;28;20029;-49
2023/08/22 09:13:58;;;;;;;5.05;2.92;;;34.40;88.50;;;;;;5035853;28;20025;-51
2023/08/22 09:16:25;;;;;;;13.27;4.13;;;34.20;90.00;;;;;;5035933;28;20145;-52
2023/08/22 09:18:51;;;;;;;5.75;4.22;;;33.80;90.50;;;;;;5053838;28;20429;-49
2023/08/22 09:21:17;;;;;;;7.20;3.95;;;33.70;91.20;;;;;;5052922;28;20064;-48
2023/08/22 09:23:43;;;;;;;4.55;3.30;;;33.60;91.00;;;;;;5035519;28;20029;-49
2023/08/22 09:26:11;;;;;;;6.32;4.30;;;33.50;91.00;;;;;;5034693;28;20507;-50
2023/08/22 09:28:40;;;;;;;5.90;3.83;;;33.30;91.40;;;;;;5053522;28;20025;-46
2023/08/22 09:31:06;;;;;;;5.82;3.08;;;32.80;92.20;;;;;;5034778;28;20036;-47
2023/08/22 09:33:45;;;;;;;6.70;3.72;;;32.80;91.90;;;;;;5051548;28;20028;-50
2023/08/22 09:36:11;;;;;;;8.02;3.70;;;33.30;91.90;;;;;;5034736;28;20028;-51
2023/08/22 09:38:58;;;;;;;6.95;3.83;;;33.00;92.50;;;;;;5053500;28;20484;-51
2023/08/22 09:41:25;;;;;;;4.20;3.60;;;33.00;93.10;;;;;;5035106;28;20029;-46
2023/08/22 09:44:01;;;;;;;6.28;3.88;;;32.60;92.50;;;;;;5014841;28;20025;-49
2023/08/22 09:46:27;;;;;;;9.48;3.88;;;32.20;92.80;;;;;;5015700;28;20029;-46
2023/08/22 09:48:56;;;;;;;19.48;4.00;;;32.10;93.80;;;;;;5033312;28;20033;-46
2023/08/22 09:51:21;;;;;;;6.10;3.60;;;32.30;93.40;;;;;;5023357;28;20573;-50
2023/08/22 09:53:53;;;;;;;5.90;3.80;;;32.20;93.50;;;;;;5018627;28;20033;-48
2023/08/22 09:56:23;;;;;;;4.82;3.58;;;32.20;93.50;;;;;;5035251;28;20031;-44
2023/08/22 09:58:49;;;;;;;4.93;3.40;;;32.30;93.30;;;;;;5052789;28;20033;-45
2023/08/22 10:01:16;;;;;;;3.72;3.30;;;32.40;93.50;;;;;;5017339;28;20078;-47
2023/08/22 10:03:49;;;;;;;12.13;5.97;;;32.00;94.20;;;;;;5052869;28;20029;-51
2023/08/22 10:06:15;;;;;;;8.40;4.00;;;32.00;94.60;;;;;;5019398;28;20028;-46
2023/08/22 10:08:42;;;;;;;6.65;4.10;;;32.10;94.90;;;;;;5042168;23;20034;-54
2023/08/22 10:11:11;;;;;;;11.10;4.07;;;31.90;94.80;;;;;;5050942;28;20027;-51
2023/08/22 10:13:37;;;;;;;7.15;3.78;;;31.90;95.10;;;;;;5053111;28;20013;-54
2023/08/22 10:16:03;;;;;;;7.75;3.55;;;32.00;94.90;;;;;;5052108;28;20480;-55
2023/08/22 10:18:29;;;;;;;5.70;4.38;;;32.20;94.80;;;;;;5033613;28;20057;-55
2023/08/22 10:20:55;;;;;;;6.25;5.50;;;31.70;95.00;;;;;;5032896;28;20080;-55
2023/08/22 10:23:52;;;;;;;6.20;4.55;;;31.60;94.90;;;;;;5032953;28;20030;-51
2023/08/22 10:26:26;;;;;;;8.25;4.35;;;31.50;95.40;;;;;;5032877;28;20040;-53
2023/08/22 10:29:14;;;;;;;7.95;4.30;;;31.50;95.40;;;;;;5031769;28;20020;-51
2023/08/22 10:32:01;;;;;;;6.28;3.92;;;31.40;95.40;;;;;;5031428;28;20026;-48
2023/08/22 10:34:39;;;;;;;12.50;4.72;;;31.40;95.00;;;;;;5032953;28;20072;-49
2023/08/22 10:37:20;;;;;;;5.50;3.80;;;31.20;95.30;;;;;;5037844;28;20025;-49
2023/08/22 10:39:47;;;;;;;9.82;4.78;;;31.10;95.70;;;;;;5050151;28;20016;-52
2023/08/22 10:42:20;;;;;;;8.38;3.92;;;31.00;95.10;;;;;;5036861;28;20029;-53
2023/08/22 10:44:54;;;;;;;12.18;6.25;;;31.10;95.40;;;;;;5032680;28;20415;-50
2023/08/22 10:47:22;;;;;;;7.75;4.20;;;31.10;95.90;;;;;;5032294;28;20032;-48
2023/08/22 10:49:53;;;;;;;8.55;4.78;;;30.90;95.80;;;;;;5032085;28;20464;-52
2023/08/22 10:52:26;;;;;;;8.55;4.60;;;30.80;96.70;;;;;;5040556;28;20040;-51
2023/08/22 10:54:58;;;;;;;10.38;5.85;;;30.70;96.80;;;;;;5031398;28;20021;-54
2023/08/22 10:57:24;;;;;;;5.03;4.53;;;30.70;97.10;;;;;;5047008;28;20476;-52
2023/08/22 11:00:12;;;;;;;7.40;6.57;;;30.70;97.50;;;;;;5042879;28;20033;-51
2023/08/22 11:02:39;;;;;;;6.50;4.10;;;30.60;96.20;;;;;;5032355;28;20495;-52
2023/08/22 11:05:11;;;;;;;7.97;4.13;;;30.50;96.50;;;;;;5033345;28;20014;-51
2023/08/22 11:07:39;;;;;;;5.88;3.78;;;30.40;96.20;;;;;;5034531;28;20452;-51
2023/08/22 11:10:06;;;;;;;5.07;4.25;;;30.30;96.30;;;;;;5031194;28;20022;-48
2023/08/22 11:12:32;;;;;;;12.25;4.60;;;30.10;96.90;;;;;;5041301;28;20025;-55
2023/08/22 11:14:57;;;;;;;7.32;3.80;;;30.00;97.00;;;;;;5048629;28;20511;-51
2023/08/22 11:17:24;;;;;;;7.97;4.03;;;30.10;97.50;;;;;;5050760;28;20400;-53
2023/08/22 11:19:52;;;;;;;5.75;4.28;;;30.10;96.60;;;;;;5051443;28;20492;-53
2023/08/22 11:22:18;;;;;;;10.68;4.43;;;30.10;96.40;;;;;;5051818;28;20040;-55
2023/08/22 11:24:45;;;;;;;10.30;4.30;;;30.10;96.00;;;;;;5049638;28;20025;-52
2023/08/22 11:27:13;;;;;;;8.23;3.97;;;30.10;96.30;;;;;;5048297;28;20404;-49
2023/08/22 11:29:44;;;;;;;10.27;4.25;;;30.10;97.30;;;;;;5049821;28;20061;-49
2023/08/22 11:32:26;;;;;;;6.18;3.38;;;29.90;96.40;;;;;;5050195;28;20437;-55
2023/08/22 11:34:57;;;;;;;6.43;3.50;;;29.80;96.20;;;;;;5049703;28;20392;-49
2023/08/22 11:37:24;;;;;;;5.60;3.42;;;29.70;96.40;;;;;;5033428;28;20029;-52
2023/08/22 11:39:51;;;;;;;12.30;4.30;;;29.60;96.50;;;;;;5049453;28;20115;-51
2023/08/22 11:42:18;;;;;;;6.85;3.22;;;29.60;96.70;;;;;;5050095;28;20029;-52
2023/08/22 11:45:05;;;;;;;6.15;3.80;;;29.50;96.30;;;;;;5051213;28;20066;-51
2023/08/22 11:47:46;;;;;;;5.63;3.60;;;29.60;96.30;;;;;;5049912;28;20114;-52
2023/08/22 11:50:24;;;;;;;7.78;3.30;;;29.60;97.10;;;;;;5033076;28;20036;-53
2023/08/22 11:53:08;;;;;;;5.30;3.78;;;29.70;95.60;;;;;;5050009;28;20037;-57
2023/08/22 11:55:35;;;;;;;5.20;3.22;;;29.60;95.40;;;;;;5039452;28;20493;-50
2023/08/22 11:58:03;;;;;;;3.55;2.85;;;29.50;95.10;;;;;;5029831;28;20040;-54
2023/08/22 12:00:30;;;;;;;6.57;3.03;;;29.50;94.90;;;;;;5034646;28;20083;-53
2023/08/22 12:02:57;;;;;;;5.55;3.30;;;29.40;95.20;;;;;;5049485;28;20035;-54
2023/08/22 12:05:40;;;;;;;8.88;3.22;;;29.40;95.70;;;;;;5046670;28;20028;-52
2023/08/22 12:08:06;;;;;;;3.45;2.80;;;29.30;95.70;;;;;;5033698;28;20037;-51
2023/08/22 12:10:41;;;;;;;7.95;3.42;;;29.20;95.60;;;;;;5033844;28;20018;-51
2023/08/22 12:13:08;;;;;;;4.18;3.30;;;29.10;96.60;;;;;;5033916;28;20140;-56
2023/08/22 12:15:33;;;;;;;5.47;3.33;;;29.10;96.40;;;;;;5033940;28;20037;-52
2023/08/22 12:17:59;;;;;;;5.10;3.10;;;29.10;96.10;;;;;;5033629;28;20022;-55
2023/08/22 12:20:25;;;;;;;5.43;3.47;;;29.10;96.70;;;;;;5040255;28;20052;-52
2023/08/22 12:22:50;;;;;;;7.50;3.22;;;29.20;96.40;;;;;;5053875;28;20021;-55
2023/08/22 12:25:16;;;;;;;4.47;2.95;;;29.10;95.50;;;;;;5053552;28;20028;-53
2023/08/22 12:27:42;;;;;;;4.55;3.00;;;29.10;95.60;;;;;;5054872;28;20049;-51
2023/08/22 12:30:08;;;;;;;4.03;2.97;;;29.10;94.80;;;;;;5040983;28;20436;-51
2023/08/22 12:32:33;;;;;;;7.57;2.92;;;29.10;95.80;;;;;;5033712;28;20079;-55
2023/08/22 12:34:59;;;;;;;8.85;3.30;;;29.10;95.90;;;;;;5045274;28;20025;-62
2023/08/22 12:37:25;;;;;;;3.42;3.13;;;29.10;95.80;;;;;;5052173;28;20508;-53
2023/08/22 12:39:51;;;;;;;5.60;3.20;;;29.10;95.70;;;;;;5052480;28;20032;-53
2023/08/22 12:42:17;;;;;;;10.07;3.45;;;29.10;95.50;;;;;;5033954;28;20567;-53